createdAt,value
2019-01-20T00:01:45.324Z,37.63
2019-01-20T00:04:16.388Z,39.53
2019-01-20T00:06:47.540Z,43.05
2019-01-20T00:09:19.908Z,39.20
2019-01-20T00:11:55.399Z,40.17
2019-01-20T00:14:27.808Z,43.95
2019-01-20T00:16:59.817Z,39.90
2019-01-20T00:19:31.941Z,42.98
2019-01-20T00:22:06.929Z,42.23
2019-01-20T00:24:37.700Z,40.35
2019-01-20T00:27:08.481Z,40.38
2019-01-20T00:29:40.124Z,39.87
2019-01-20T00:32:16.666Z,40.47
2019-01-20T00:34:48.284Z,39.78
2019-01-20T00:37:19.046Z,40.47
2019-01-20T00:39:49.506Z,44.13
2019-01-20T00:42:20.769Z,41.73
2019-01-20T00:44:52.342Z,40.60
2019-01-20T00:47:23.284Z,39.57
2019-01-20T00:49:54.710Z,39.13
2019-01-20T00:52:26.526Z,39.38
2019-01-20T00:55:06.398Z,39.60
2019-01-20T00:57:41.177Z,41.83
2019-01-20T01:00:18.105Z,41.30
2019-01-20T01:02:51.250Z,45.15
2019-01-20T01:05:23.417Z,43.30
2019-01-20T01:07:53.980Z,40.73
2019-01-20T01:10:25.543Z,42.20
2019-01-20T01:13:00.632Z,45.90
2019-01-20T01:15:34.836Z,40.55
2019-01-20T01:18:06.273Z,42.15
2019-01-20T01:20:36.791Z,42.60
2019-01-20T01:23:07.302Z,40.63
2019-01-20T01:25:37.870Z,40.20
2019-01-20T01:28:08.464Z,41.30
2019-01-20T01:30:39.041Z,42.70
2019-01-20T01:33:11.365Z,41.23
2019-01-20T01:35:41.924Z,39.23
2019-01-20T01:38:12.533Z,43.63
2019-01-20T01:40:43.800Z,41.30
2019-01-20T01:43:20.006Z,41.50
2019-01-20T01:45:52.217Z,44.15
2019-01-20T01:48:23.712Z,41.60
2019-01-20T01:50:55.240Z,41.37
2019-01-20T01:53:26.407Z,41.35
2019-01-20T01:55:59.829Z,42.40
2019-01-20T01:58:30.424Z,43.13
2019-01-20T02:01:18.969Z,41.88
2019-01-20T02:03:50.451Z,42.53
2019-01-20T02:06:21.757Z,40.85
2019-01-20T02:08:52.469Z,42.17
2019-01-20T02:11:23.454Z,40.95
2019-01-20T02:13:55.467Z,39.63
2019-01-20T02:16:27.960Z,39.35
2019-01-20T02:18:59.322Z,40.58
2019-01-20T02:21:31.146Z,39.78
2019-01-20T02:24:02.140Z,42.78
2019-01-20T02:26:33.439Z,43.33
2019-01-20T02:29:04.678Z,42.20
2019-01-20T02:31:42.209Z,41.67
2019-01-20T02:34:13.060Z,42.20
2019-01-20T02:36:46.976Z,41.95
2019-01-20T02:39:23.829Z,42.80
2019-01-20T02:41:55.490Z,43.23
2019-01-20T02:44:26.289Z,41.50
2019-01-20T02:47:00.156Z,42.97
2019-01-20T02:49:33.356Z,47.37
2019-01-20T02:52:04.384Z,46.80
2019-01-20T02:54:44.578Z,42.97
2019-01-20T02:57:15.398Z,45.25
2019-01-20T02:59:45.901Z,43.50
2019-01-20T03:02:17.530Z,44.55
2019-01-20T03:04:48.352Z,45.70
2019-01-20T03:07:22.457Z,42.60
2019-01-20T03:09:52.954Z,45.50
2019-01-20T03:12:33.388Z,32.60
2019-01-20T03:15:04.553Z,30.03
2019-01-20T03:17:38.521Z,31.20
2019-01-20T03:20:15.438Z,45.03
2019-01-20T03:22:47.130Z,43.33
2019-01-20T03:25:17.842Z,45.85
2019-01-20T03:27:55.341Z,46.57
2019-01-20T03:30:25.794Z,45.30
2019-01-20T03:32:56.534Z,48.43
2019-01-20T03:35:27.084Z,46.93
2019-01-20T03:37:57.581Z,45.30
2019-01-20T03:40:31.669Z,45.60
2019-01-20T03:43:12.053Z,44.18
2019-01-20T03:45:42.868Z,43.48
2019-01-20T03:48:13.403Z,46.68
2019-01-20T03:50:44.057Z,44.00
2019-01-20T03:53:15.103Z,46.92
2019-01-20T03:55:45.629Z,48.08
2019-01-20T03:58:16.098Z,43.38
2019-01-20T04:00:49.765Z,43.42
2019-01-20T04:03:20.304Z,43.28
2019-01-20T04:05:51.328Z,42.10
2019-01-20T04:08:21.873Z,45.10
2019-01-20T04:10:52.357Z,42.77
2019-01-20T04:13:22.816Z,42.77
2019-01-20T04:15:53.277Z,44.90
2019-01-20T04:18:26.798Z,47.47
2019-01-20T04:20:57.275Z,42.23
2019-01-20T04:23:27.996Z,44.70
2019-01-20T04:25:58.464Z,45.17
2019-01-20T04:28:28.961Z,44.93
2019-01-20T04:31:01.255Z,45.03
2019-01-20T04:33:32.048Z,47.00
2019-01-20T04:36:02.894Z,46.47
2019-01-20T04:38:33.357Z,47.83
2019-01-20T04:41:03.800Z,47.07
2019-01-20T04:43:37.513Z,44.18
2019-01-20T04:46:08.460Z,45.70
2019-01-20T04:48:39.341Z,46.13
2019-01-20T04:51:09.984Z,42.25
2019-01-20T04:53:41.528Z,42.67
2019-01-20T04:56:25.382Z,42.80
2019-01-20T04:58:59.964Z,47.40
2019-01-20T05:01:30.538Z,42.60
2019-01-20T05:04:04.556Z,42.80
2019-01-20T05:06:35.326Z,42.77
2019-01-20T05:09:10.749Z,43.55
2019-01-20T05:11:42.138Z,42.77
2019-01-20T05:14:16.782Z,40.67
2019-01-20T05:16:53.876Z,44.60
2019-01-20T05:19:33.998Z,43.63
2019-01-20T05:22:04.429Z,46.33
2019-01-20T05:24:44.644Z,45.13
2019-01-20T05:27:15.117Z,44.63
2019-01-20T05:29:45.606Z,49.80
2019-01-20T05:32:16.111Z,44.23
2019-01-20T05:34:47.405Z,49.45
2019-01-20T05:37:18.399Z,46.60
2019-01-20T05:39:52.004Z,48.78
2019-01-20T05:42:22.726Z,45.97
2019-01-20T05:44:53.186Z,46.20
2019-01-20T05:47:24.555Z,46.10
2019-01-20T05:49:54.978Z,45.93
2019-01-20T05:52:25.454Z,46.67
2019-01-20T05:54:59.364Z,49.80
2019-01-20T05:57:30.156Z,46.10
2019-01-20T06:00:20.581Z,45.63
2019-01-20T06:02:51.214Z,44.20
2019-01-20T06:05:22.121Z,48.05
2019-01-20T06:07:52.820Z,46.87
2019-01-20T06:10:26.790Z,46.10
2019-01-20T06:12:57.725Z,47.17
2019-01-20T06:15:28.541Z,45.15
2019-01-20T06:18:01.992Z,49.23
2019-01-20T06:20:32.471Z,44.40
2019-01-20T06:23:03.013Z,45.08
2019-01-20T06:25:33.528Z,45.55
2019-01-20T06:28:04.021Z,46.23
2019-01-20T06:30:34.546Z,44.13
2019-01-20T06:33:05.986Z,45.00
2019-01-20T06:35:42.404Z,45.92
2019-01-20T06:38:12.892Z,45.55
2019-01-20T06:40:43.642Z,45.52
2019-01-20T06:43:17.832Z,48.87
2019-01-20T06:45:48.763Z,47.10
2019-01-20T06:48:19.587Z,45.77
2019-01-20T06:50:50.354Z,43.02
2019-01-20T06:53:21.072Z,43.73
2019-01-20T06:55:52.044Z,43.70
2019-01-20T06:58:22.536Z,46.53
2019-01-20T07:00:53.029Z,48.28
2019-01-20T07:03:26.488Z,46.50
2019-01-20T07:05:57.077Z,44.35
2019-01-20T07:08:30.945Z,42.60
2019-01-20T07:11:05.289Z,45.85
2019-01-20T07:13:36.261Z,51.27
2019-01-20T07:16:06.905Z,45.85
2019-01-20T07:18:37.744Z,48.37
2019-01-20T07:21:08.473Z,48.60
2019-01-20T07:23:39.197Z,50.27
2019-01-20T07:26:09.757Z,47.90
2019-01-20T07:28:40.275Z,51.45
2019-01-20T07:31:10.804Z,50.23
2019-01-20T07:36:28.744Z,46.70
2019-01-20T07:38:59.280Z,46.50
2019-01-20T07:41:30.125Z,45.43
2019-01-20T07:44:00.744Z,45.03
2019-01-20T07:46:31.552Z,46.80
2019-01-20T07:49:02.166Z,46.60
2019-01-20T07:51:32.644Z,47.27
2019-01-20T07:54:03.109Z,47.33
2019-01-20T07:56:33.597Z,47.37
2019-01-20T07:59:04.209Z,47.67
2019-01-20T08:01:34.702Z,48.90
2019-01-20T08:04:05.203Z,49.50
2019-01-20T08:06:35.695Z,47.00
2019-01-20T08:09:08.170Z,47.10
2019-01-20T08:11:40.691Z,47.57
2019-01-20T08:14:11.761Z,50.40
2019-01-20T08:16:42.275Z,52.03
2019-01-20T08:19:13.518Z,49.55
2019-01-20T08:21:44.426Z,50.52
2019-01-20T08:24:17.846Z,50.70
2019-01-20T08:26:50.140Z,50.53
2019-01-20T08:29:21.113Z,51.60
2019-01-20T08:31:51.641Z,51.20
2019-01-20T08:34:22.309Z,50.25
2019-01-20T08:36:52.967Z,49.27
2019-01-20T08:39:23.853Z,48.97
2019-01-20T08:41:54.591Z,52.70
2019-01-20T08:44:30.049Z,47.33
2019-01-20T08:47:32.732Z,48.10
2019-01-20T08:50:04.480Z,48.52
2019-01-20T08:52:35.044Z,49.03
2019-01-20T08:55:07.056Z,46.60
2019-01-20T08:57:37.660Z,45.50
2019-01-20T09:00:12.609Z,42.27
2019-01-20T09:02:43.528Z,46.53
2019-01-20T09:05:15.242Z,43.75
2019-01-20T09:07:46.014Z,44.17
2019-01-20T09:10:22.848Z,46.40
2019-01-20T09:12:54.693Z,44.18
2019-01-20T09:15:25.185Z,44.53
2019-01-20T09:17:56.403Z,45.50
2019-01-20T09:20:26.904Z,43.10
2019-01-20T09:22:57.503Z,44.13
2019-01-20T09:25:27.989Z,43.63
2019-01-20T09:27:58.899Z,44.10
2019-01-20T09:30:29.501Z,44.85
2019-01-20T09:33:00.352Z,42.93
2019-01-20T09:35:40.085Z,44.73
2019-01-20T09:38:10.757Z,44.57
2019-01-20T09:40:42.115Z,42.70
2019-01-20T09:43:14.426Z,42.10
2019-01-20T09:45:51.990Z,42.43
2019-01-20T09:48:23.435Z,39.88
2019-01-20T09:50:54.000Z,41.80
2019-01-20T09:53:40.298Z,40.35
2019-01-20T09:56:10.840Z,40.00
2019-01-20T09:58:41.785Z,39.90
2019-01-20T10:01:12.521Z,39.70
2019-01-20T10:03:43.059Z,42.43
2019-01-20T10:06:13.762Z,41.28
2019-01-20T10:08:45.069Z,41.42
2019-01-20T10:11:15.683Z,43.25
2019-01-20T10:13:46.405Z,43.60
2019-01-20T10:16:16.928Z,41.92
2019-01-20T10:18:49.719Z,44.07
2019-01-20T10:21:20.377Z,43.70
2019-01-20T10:23:50.868Z,43.43
2019-01-20T10:26:21.385Z,41.98
2019-01-20T10:28:52.265Z,40.75
2019-01-20T10:31:22.817Z,42.20
2019-01-20T10:33:53.393Z,40.73
2019-01-20T10:36:24.029Z,40.37
2019-01-20T10:38:54.591Z,39.78
2019-01-20T10:41:25.138Z,40.45
2019-01-20T10:44:02.015Z,39.90
2019-01-20T10:46:27.921Z,39.40
2019-01-20T10:48:58.405Z,37.88
2019-01-20T10:51:28.865Z,38.13
2019-01-20T10:53:59.355Z,37.40
2019-01-20T10:56:29.856Z,37.53
2019-01-20T10:59:00.389Z,37.53
2019-01-20T11:01:30.984Z,36.43
2019-01-20T11:04:01.476Z,37.55
2019-01-20T11:06:31.960Z,36.97
2019-01-20T11:09:02.461Z,39.27
2019-01-20T11:11:33.975Z,36.63
2019-01-20T11:14:09.423Z,36.80
2019-01-20T11:16:36.845Z,35.57
2019-01-20T11:19:07.663Z,37.93
2019-01-20T11:21:38.201Z,36.40
2019-01-20T11:24:08.708Z,36.33
2019-01-20T11:26:39.327Z,38.27
2019-01-20T11:29:09.805Z,38.45
2019-01-20T11:31:40.336Z,37.55
2019-01-20T11:34:10.925Z,34.70
2019-01-20T11:36:41.437Z,36.93
2019-01-20T11:39:12.979Z,37.23
2019-01-20T11:41:43.461Z,39.38
2019-01-20T11:44:17.150Z,39.77
2019-01-20T11:46:47.726Z,39.95
2019-01-20T11:49:18.331Z,41.30
2019-01-20T11:51:49.281Z,41.97
2019-01-20T11:54:19.785Z,40.85
2019-01-20T11:56:50.734Z,41.80
2019-01-20T11:59:21.361Z,41.47
2019-01-20T12:01:51.962Z,40.23
2019-01-20T12:04:22.629Z,40.00
2019-01-20T12:06:53.140Z,39.73
2019-01-20T12:09:23.901Z,37.23
2019-01-20T12:11:55.981Z,37.60
2019-01-20T12:14:26.761Z,36.85
2019-01-20T12:16:57.317Z,35.60
2019-01-20T12:19:27.830Z,37.58
2019-01-20T12:21:58.287Z,31.13
2019-01-20T12:24:28.761Z,30.47
2019-01-20T12:26:59.282Z,28.97
2019-01-20T12:29:29.864Z,30.37
2019-01-20T12:32:00.318Z,29.63
2019-01-20T12:34:31.950Z,28.70
2019-01-20T12:37:02.731Z,28.57
2019-01-20T12:39:33.224Z,28.30
2019-01-20T12:42:03.722Z,28.07
2019-01-20T12:44:34.221Z,34.20
2019-01-20T12:47:04.755Z,29.70
2019-01-20T12:49:35.485Z,27.77
2019-01-20T12:52:05.968Z,28.53
2019-01-20T12:54:36.545Z,29.93
2019-01-20T12:57:07.001Z,29.73
2019-01-20T12:59:38.197Z,30.40
2019-01-20T13:02:08.938Z,28.87
2019-01-20T13:04:39.435Z,28.30
2019-01-20T13:07:10.294Z,27.07
2019-01-20T13:09:40.808Z,27.87
2019-01-20T13:12:11.428Z,27.90
2019-01-20T13:14:41.969Z,28.00
2019-01-20T13:17:12.509Z,28.67
2019-01-20T13:19:43.329Z,28.30
2019-01-20T13:22:13.806Z,27.83
2019-01-20T13:24:44.900Z,27.83
2019-01-20T13:27:15.444Z,27.17
2019-01-20T13:29:46.959Z,27.37
2019-01-20T13:32:17.428Z,28.37
2019-01-20T13:34:48.025Z,28.10
2019-01-20T13:37:18.537Z,27.70
2019-01-20T13:39:49.014Z,27.07
2019-01-20T13:42:19.557Z,26.37
2019-01-20T13:44:50.132Z,28.43
2019-01-20T13:47:20.619Z,26.87
2019-01-20T13:49:51.159Z,26.43
2019-01-20T13:52:21.633Z,28.93
2019-01-20T13:54:52.767Z,28.17
2019-01-20T13:57:23.606Z,28.30
2019-01-20T13:59:54.385Z,26.97
2019-01-20T14:02:24.890Z,27.05
2019-01-20T14:04:55.791Z,27.53
2019-01-20T14:07:26.354Z,28.00
2019-01-20T14:09:57.055Z,26.80
2019-01-20T14:12:28.634Z,26.97
2019-01-20T14:14:59.113Z,28.00
2019-01-20T14:17:29.676Z,27.73
2019-01-20T14:20:00.245Z,28.43
2019-01-20T14:22:30.999Z,27.37
2019-01-20T14:25:01.820Z,25.47
2019-01-20T14:27:32.307Z,26.43
2019-01-20T14:30:03.209Z,25.90
2019-01-20T14:32:33.707Z,25.67
2019-01-20T14:35:05.276Z,26.30
2019-01-20T14:37:35.736Z,25.47
2019-01-20T14:40:07.288Z,27.57
2019-01-20T14:42:37.778Z,27.53
2019-01-20T14:45:08.896Z,26.53
2019-01-20T14:47:39.430Z,26.50
2019-01-20T14:50:13.272Z,28.23
2019-01-20T14:52:43.754Z,26.70
2019-01-20T14:55:14.522Z,27.30
2019-01-20T14:57:44.960Z,28.03
2019-01-20T15:00:28.037Z,24.60
2019-01-20T15:02:58.583Z,27.77
2019-01-20T15:05:29.103Z,26.63
2019-01-20T15:07:59.976Z,28.30
2019-01-20T15:10:31.376Z,28.40
2019-01-20T15:13:01.886Z,30.73
2019-01-20T15:15:37.695Z,26.83
2019-01-20T15:18:08.726Z,28.27
2019-01-20T15:20:40.254Z,25.90
2019-01-20T15:23:10.748Z,27.80
2019-01-20T15:25:41.404Z,26.40
2019-01-20T15:28:12.219Z,27.97
2019-01-20T15:30:43.069Z,27.43
2019-01-20T15:33:13.547Z,29.60
2019-01-20T15:35:44.290Z,28.93
2019-01-20T15:38:14.837Z,28.80
2019-01-20T15:40:45.621Z,29.00
2019-01-20T15:43:16.084Z,28.67
2019-01-20T15:45:46.737Z,27.93
2019-01-20T15:48:17.261Z,27.27
2019-01-20T15:50:47.866Z,28.03
2019-01-20T15:53:18.564Z,28.20
2019-01-20T15:55:49.050Z,29.13
2019-01-20T15:58:20.048Z,28.63
2019-01-20T16:00:50.528Z,27.57
2019-01-20T16:03:21.128Z,30.00
2019-01-20T16:05:51.610Z,28.10
2019-01-20T16:08:22.098Z,27.80
2019-01-20T16:10:53.237Z,27.03
2019-01-20T16:13:24.231Z,27.67
2019-01-20T16:15:55.444Z,28.33
2019-01-20T16:18:26.231Z,27.43
2019-01-20T16:20:56.766Z,28.50
2019-01-20T16:23:27.871Z,27.87
2019-01-20T16:25:58.432Z,28.77
2019-01-20T16:28:28.919Z,26.20
2019-01-20T16:30:59.851Z,27.73
2019-01-20T16:33:30.414Z,33.08
2019-01-20T16:36:00.887Z,28.77
2019-01-20T16:38:32.526Z,29.30
2019-01-20T16:41:03.444Z,28.23
2019-01-20T16:43:33.992Z,28.17
2019-01-20T16:46:04.457Z,28.33
2019-01-20T16:48:35.169Z,26.83
2019-01-20T16:51:05.656Z,28.10
2019-01-20T16:53:36.165Z,27.10
2019-01-20T16:56:06.764Z,27.80
2019-01-20T16:58:37.229Z,28.20
2019-01-20T17:01:07.825Z,28.43
2019-01-20T17:03:38.357Z,26.80
2019-01-20T17:06:08.882Z,28.00
2019-01-20T17:08:39.682Z,28.73
2019-01-20T17:11:10.281Z,28.13
2019-01-20T17:13:41.313Z,29.40
2019-01-20T17:16:11.789Z,28.37
2019-01-20T17:18:42.377Z,29.87
2019-01-20T17:21:13.844Z,27.70
2019-01-20T17:23:44.399Z,29.00
2019-01-20T17:26:14.888Z,28.87
2019-01-20T17:28:45.647Z,28.50
2019-01-20T17:31:16.140Z,28.50
2019-01-20T17:33:46.894Z,30.70
2019-01-20T17:36:17.368Z,29.87
2019-01-20T17:38:47.905Z,29.90
2019-01-20T17:41:18.489Z,31.73
2019-01-20T17:43:49.029Z,29.20
2019-01-20T17:46:19.536Z,29.23
2019-01-20T17:48:50.027Z,30.50
2019-01-20T17:51:20.553Z,30.30
2019-01-20T17:53:52.161Z,29.27
2019-01-20T17:56:22.717Z,30.17
2019-01-20T17:58:53.263Z,31.07
2019-01-20T18:01:23.760Z,31.30
2019-01-20T18:03:54.288Z,28.90
2019-01-20T18:06:24.789Z,29.90
2019-01-20T18:08:55.389Z,31.03
2019-01-20T18:11:25.909Z,30.93
2019-01-20T18:13:56.487Z,31.90
2019-01-20T18:16:27.025Z,33.70
2019-01-20T18:18:57.567Z,34.90
2019-01-20T18:21:28.230Z,34.13
2019-01-20T18:23:58.735Z,32.87
2019-01-20T18:28:58.746Z,42.50
2019-01-20T18:31:29.401Z,33.37
2019-01-20T18:33:59.917Z,30.70
2019-01-20T18:36:30.391Z,31.87
2019-01-20T18:39:00.956Z,32.40
2019-01-20T18:41:32.476Z,31.87
2019-01-20T18:44:03.015Z,32.77
2019-01-20T18:46:39.608Z,32.77
2019-01-20T18:49:10.108Z,34.27
2019-01-20T18:51:40.578Z,33.57
2019-01-20T18:54:11.068Z,35.30
2019-01-20T18:56:41.636Z,32.70
2019-01-20T18:59:12.149Z,31.30
2019-01-20T19:01:42.591Z,31.90
2019-01-20T19:04:13.170Z,32.67
2019-01-20T19:06:43.612Z,31.40
2019-01-20T19:09:14.094Z,30.03
2019-01-20T19:11:44.560Z,30.93
2019-01-20T19:14:15.088Z,27.57
2019-01-20T19:16:45.569Z,30.53
2019-01-20T19:19:16.107Z,31.13
2019-01-20T19:21:46.808Z,29.70
2019-01-20T19:24:17.311Z,30.07
2019-01-20T19:26:47.804Z,30.50
2019-01-20T19:29:18.308Z,30.93
2019-01-20T19:31:48.861Z,30.27
2019-01-20T19:34:19.966Z,29.73
2019-01-20T19:36:50.650Z,29.47
2019-01-20T19:39:21.329Z,30.67
2019-01-20T19:41:52.009Z,31.73
2019-01-20T19:44:22.649Z,29.77
2019-01-20T19:46:53.371Z,29.07
2019-01-20T19:49:24.009Z,29.97
2019-01-20T19:51:55.095Z,27.37
2019-01-20T19:54:33.884Z,28.63
2019-01-20T19:57:04.529Z,27.67
2019-01-20T19:59:35.191Z,28.60
2019-01-20T20:02:06.015Z,27.77
2019-01-20T20:04:37.574Z,28.03
2019-01-20T20:07:09.000Z,26.57
2019-01-20T20:09:40.669Z,28.00
2019-01-20T20:12:11.286Z,27.63
2019-01-20T20:14:43.289Z,29.30
2019-01-20T20:17:14.266Z,28.73
2019-01-20T20:19:44.954Z,28.07
2019-01-20T20:22:15.576Z,26.47
2019-01-20T20:24:46.537Z,28.53
2019-01-20T20:27:17.096Z,28.63
2019-01-20T20:29:47.566Z,27.57
2019-01-20T20:32:18.584Z,28.43
2019-01-20T20:34:53.664Z,28.83
2019-01-20T20:37:21.396Z,30.10
2019-01-20T20:39:52.045Z,28.17
2019-01-20T20:42:22.552Z,27.97
2019-01-20T20:44:53.149Z,27.60
2019-01-20T20:47:23.605Z,29.17
2019-01-20T20:49:54.142Z,25.27
2019-01-20T20:52:24.646Z,27.90
2019-01-20T20:54:55.166Z,27.57
2019-01-20T20:57:25.695Z,27.73
2019-01-20T20:59:56.205Z,29.10
2019-01-20T21:02:26.757Z,29.13
2019-01-20T21:04:57.412Z,27.47
2019-01-20T21:07:27.987Z,29.13
2019-01-20T21:09:58.756Z,27.27
2019-01-20T21:12:29.536Z,29.23
2019-01-20T21:15:03.366Z,28.93
2019-01-20T21:17:32.580Z,27.13
2019-01-20T21:20:03.043Z,27.53
2019-01-20T21:22:33.527Z,29.00
2019-01-20T21:25:06.101Z,29.63
2019-01-20T21:27:36.639Z,30.07
2019-01-20T21:30:11.003Z,29.77
2019-01-20T21:32:41.502Z,31.00
2019-01-20T21:35:12.691Z,30.93
2019-01-20T21:37:43.212Z,28.67
2019-01-20T21:40:14.396Z,30.77
2019-01-20T21:42:45.483Z,32.37
2019-01-20T21:45:16.676Z,30.13
2019-01-20T21:47:47.268Z,30.47
2019-01-20T21:50:23.177Z,32.93
2019-01-20T21:52:54.800Z,33.10
2019-01-20T21:55:25.284Z,30.80
2019-01-20T21:57:55.883Z,31.83
2019-01-20T22:00:28.076Z,33.63
2019-01-20T22:02:58.895Z,30.70
2019-01-20T22:05:29.730Z,32.37
2019-01-20T22:08:00.220Z,31.70
2019-01-20T22:10:30.784Z,33.47
2019-01-20T22:13:01.557Z,31.47
2019-01-20T22:15:32.171Z,31.03
2019-01-20T22:18:03.221Z,30.73
2019-01-20T22:20:33.851Z,31.23
2019-01-20T22:23:04.344Z,32.40
2019-01-20T22:25:35.140Z,33.20
2019-01-20T22:28:05.694Z,35.20
2019-01-20T22:30:36.193Z,33.87
2019-01-20T22:33:06.682Z,32.23
2019-01-20T22:35:37.186Z,33.27
2019-01-20T22:38:07.992Z,32.30
2019-01-20T22:40:38.481Z,31.40
2019-01-20T22:43:08.965Z,33.90
2019-01-20T22:45:39.701Z,33.33
2019-01-20T22:48:10.166Z,31.43
2019-01-20T22:50:40.934Z,32.87
2019-01-20T22:53:11.447Z,32.83
2019-01-20T22:55:42.056Z,33.47
2019-01-20T22:58:12.604Z,33.07
2019-01-20T23:00:56.692Z,33.23
2019-01-20T23:03:29.428Z,31.67
2019-01-20T23:05:59.902Z,32.63
2019-01-20T23:08:30.436Z,31.70
2019-01-20T23:11:01.035Z,31.07
2019-01-20T23:13:31.709Z,32.87
2019-01-20T23:16:02.197Z,31.87
2019-01-20T23:18:32.662Z,32.90
2019-01-20T23:21:03.258Z,32.33
2019-01-20T23:23:33.752Z,33.57
2019-01-20T23:26:04.685Z,31.17
2019-01-20T23:28:35.531Z,31.73
2019-01-20T23:31:06.053Z,32.63
2019-01-20T23:33:36.636Z,32.33
2019-01-20T23:36:08.339Z,31.93
2019-01-20T23:38:38.976Z,32.73
2019-01-20T23:41:09.458Z,34.23
2019-01-20T23:43:39.997Z,34.53
2019-01-20T23:46:10.906Z,33.60
2019-01-20T23:48:41.372Z,32.90
2019-01-20T23:51:11.993Z,33.83
2019-01-20T23:53:42.572Z,33.63
2019-01-20T23:56:13.178Z,34.17
2019-01-20T23:58:48.279Z,34.47
